Time,TemperatureF,DewpointF,PressureIn,WindDirection,WindDirectionDegrees,WindSpeedMPH,WindSpeedGustMPH,Humidity,HourlyPrecipIn,Conditions,Clouds,dailyrainin,SoftwareType,DateUTC
2013-07-15 00:00:00,77.2,67.1,30.16,North,0,0.0,0.0,71,0.00,,,0.00,WUHU21623XXSP,2013-07-15 05:00:00,
2013-07-15 00:05:00,77.0,67.3,30.16,North,0,0.0,0.0,72,0.00,,,0.00,WUHU21623XXSP,2013-07-15 05:05:00,
2013-07-15 00:10:00,76.8,67.5,30.16,North,0,0.0,0.0,73,0.00,,,0.00,WUHU21623XXSP,2013-07-15 05:10:00,
2013-07-15 00:15:00,76.8,67.5,30.16,North,0,0.0,0.0,73,0.00,,,0.00,WUHU21623XXSP,2013-07-15 05:15:00,
2013-07-15 00:20:00,76.6,67.3,30.16,North,0,0.0,0.0,73,0.00,,,0.00,WUHU21623XXSP,2013-07-15 05:20:00,
2013-07-15 00:25:00,76.6,67.7,30.16,North,0,0.0,0.0,74,0.00,,,0.00,WUHU21623XXSP,2013-07-15 05:25:00,
2013-07-15 00:30:00,76.5,67.6,30.16,North,0,0.0,0.0,74,0.00,,,0.00,WUHU21623XXSP,2013-07-15 05:30:00,
2013-07-15 00:35:00,76.3,67.4,30.16,North,0,0.0,0.0,74,0.00,,,0.00,WUHU21623XXSP,2013-07-15 05:35:00,
2013-07-15 00:40:00,76.3,67.4,30.17,North,0,0.0,0.0,74,0.00,,,0.00,WUHU21623XXSP,2013-07-15 05:40:00,
2013-07-15 00:45:00,75.9,67.4,30.16,North,0,0.0,0.0,75,0.00,,,0.00,WUHU21623XXSP,2013-07-15 05:45:00,
2013-07-15 00:50:00,75.9,67.4,30.16,North,0,0.0,0.0,75,0.00,,,0.00,WUHU21623XXSP,2013-07-15 05:50:00,
2013-07-15 00:55:00,75.7,67.2,30.16,North,0,0.0,0.0,75,0.00,,,0.00,WUHU21623XXSP,2013-07-15 05:55:00,
2013-07-15 01:00:00,75.4,67.3,30.16,North,0,0.0,0.0,76,0.00,,,0.00,WUHU21623XXSP,2013-07-15 06:00:00,
2013-07-15 01:05:00,75.4,67.3,30.16,North,0,0.0,0.0,76,0.00,,,0.00,WUHU21623XXSP,2013-07-15 06:05:00,
2013-07-15 01:10:00,75.2,67.1,30.16,North,0,0.0,0.0,76,0.00,,,0.00,WUHU21623XXSP,2013-07-15 06:10:00,
2013-07-15 01:15:00,75.0,67.0,30.16,North,0,0.0,0.0,76,0.00,,,0.00,WUHU21623XXSP,2013-07-15 06:15:00,
2013-07-15 01:20:00,74.8,67.0,30.15,North,0,0.0,0.0,76,0.00,,,0.00,WUHU21623XXSP,2013-07-15 06:20:00,
2013-07-15 01:25:00,74.8,67.2,30.16,North,0,0.0,0.0,77,0.00,,,0.00,WUHU21623XXSP,2013-07-15 06:25:00,
2013-07-15 01:30:00,74.5,67.0,30.16,North,0,0.0,0.0,77,0.00,,,0.00,WUHU21623XXSP,2013-07-15 06:30:00,
2013-07-15 01:35:00,74.5,67.2,30.17,North,0,0.0,0.0,78,0.00,,,0.00,WUHU21623XXSP,2013-07-15 06:35:00,
2013-07-15 01:40:00,74.3,67.2,30.17,North,0,0.0,0.0,78,0.00,,,0.00,WUHU21623XXSP,2013-07-15 06:40:00,
2013-07-15 01:45:00,74.3,67.0,30.17,North,0,0.0,0.0,78,0.00,,,0.00,WUHU21623XXSP,2013-07-15 06:45:00,
2013-07-15 01:50:00,74.1,66.9,30.16,North,0,0.0,0.0,78,0.00,,,0.00,WUHU21623XXSP,2013-07-15 06:50:00,
2013-07-15 01:55:00,74.1,66.9,30.16,North,0,0.0,0.0,78,0.00,,,0.00,WUHU21623XXSP,2013-07-15 06:55:00,
2013-07-15 02:00:00,73.9,66.7,30.16,North,0,0.0,0.0,78,0.00,,,0.00,WUHU21623XXSP,2013-07-15 07:00:00,
2013-07-15 02:05:00,73.9,66.7,30.16,North,0,0.0,0.0,78,0.00,,,0.00,WUHU21623XXSP,2013-07-15 07:05:00,
2013-07-15 02:17:00,73.8,66.9,30.16,North,0,0.0,0.0,79,0.00,,,0.00,WUHU21623XXSP,2013-07-15 07:17:00,
2013-07-15 02:22:00,73.6,66.7,30.16,North,0,0.0,0.0,79,0.00,,,0.00,WUHU21623XXSP,2013-07-15 07:22:00,
2013-07-15 02:27:00,73.6,67.1,30.17,North,0,0.0,0.0,80,0.00,,,0.00,WUHU21623XXSP,2013-07-15 07:27:00,
2013-07-15 02:32:00,73.6,67.1,30.17,North,0,0.0,0.0,80,0.00,,,0.00,WUHU21623XXSP,2013-07-15 07:32:00,
2013-07-15 02:37:00,73.4,66.9,30.17,North,0,0.0,0.0,80,0.00,,,0.00,WUHU21623XXSP,2013-07-15 07:37:00,
2013-07-15 02:42:00,73.2,66.7,30.17,North,0,0.0,0.0,80,0.00,,,0.00,WUHU21623XXSP,2013-07-15 07:42:00,
2013-07-15 02:47:00,73.2,66.7,30.16,North,0,0.0,0.0,80,0.00,,,0.00,WUHU21623XXSP,2013-07-15 07:47:00,
2013-07-15 02:52:00,73.2,66.7,30.16,North,0,0.0,0.0,80,0.00,,,0.00,WUHU21623XXSP,2013-07-15 07:52:00,
2013-07-15 02:57:00,73.0,66.6,30.16,North,0,0.0,0.0,80,0.00,,,0.00,WUHU21623XXSP,2013-07-15 07:57:00,
2013-07-15 03:02:00,72.9,66.7,30.16,North,0,0.0,0.0,81,0.00,,,0.00,WUHU21623XXSP,2013-07-15 08:02:00,
2013-07-15 03:07:00,72.7,66.5,30.16,North,0,0.0,0.0,81,0.00,,,0.00,WUHU21623XXSP,2013-07-15 08:07:00,
2013-07-15 13:27:00,88.3,74.2,30.21,North,0,0.0,0.0,63,0.00,,,0.00,WUHU21623XXSP,2013-07-15 18:27:00,
2013-07-15 13:33:00,88.7,74.5,30.21,North,0,0.0,0.0,63,0.00,,,0.00,WUHU21623XXSP,2013-07-15 18:33:00,
2013-07-15 13:38:00,89.2,74.1,30.21,North,0,0.0,0.0,61,0.00,,,0.00,WUHU21623XXSP,2013-07-15 18:38:00,
2013-07-15 13:43:00,89.4,74.2,30.21,North,0,0.0,0.0,61,0.00,,,0.00,WUHU21623XXSP,2013-07-15 18:43:00,
2013-07-15 13:48:00,89.8,74.6,30.21,North,0,0.0,0.0,61,0.00,,,0.00,WUHU21623XXSP,2013-07-15 18:48:00,
2013-07-15 13:53:00,89.8,73.6,30.20,North,0,0.0,0.0,59,0.00,,,0.00,WUHU21623XXSP,2013-07-15 18:53:00,
2013-07-15 13:59:00,89.8,73.0,30.20,North,0,0.0,0.0,58,0.00,,,0.00,WUHU21623XXSP,2013-07-15 18:59:00,
2013-07-15 14:04:00,90.1,72.8,30.20,North,0,0.0,0.0,57,0.00,,,0.00,WUHU21623XXSP,2013-07-15 19:04:00,
2013-07-15 23:25:00,75.6,69.4,30.25,North,0,0.0,0.0,81,0.00,,,0.00,WUHU21623XXSP,2013-07-16 04:25:00,
2013-07-15 23:28:00,75.6,69.4,30.25,North,0,0.0,0.0,81,0.00,,,0.00,WUHU21623XXSP,2013-07-16 04:28:00,
2013-07-15 23:30:00,75.4,69.2,30.25,North,0,0.0,0.0,81,0.00,,,0.00,WUHU21623XXSP,2013-07-16 04:30:00,
2013-07-15 23:35:00,75.4,69.2,30.24,North,0,0.0,0.0,81,0.00,,,0.00,WUHU21623XXSP,2013-07-16 04:35:00,
2013-07-15 23:40:00,75.4,69.6,30.24,North,0,0.0,0.0,82,0.00,,,0.00,WUHU21623XXSP,2013-07-16 04:40:00,
2013-07-15 23:45:00,75.2,69.4,30.24,North,0,0.0,0.0,82,0.00,,,0.00,WUHU21623XXSP,2013-07-16 04:45:00,
2013-07-15 23:48:00,75.0,69.4,30.24,North,0,0.0,0.0,82,0.00,,,0.00,WUHU21623XXSP,2013-07-16 04:48:00,
2013-07-15 23:53:00,75.0,69.2,30.25,North,0,0.0,0.0,82,0.00,,,0.00,WUHU21623XXSP,2013-07-16 04:53:00,
2013-07-15 23:58:00,75.0,69.2,30.24,North,0,0.0,0.0,82,0.00,,,0.00,WUHU21623XXSP,2013-07-16 04:58:00,